Time;durP1;ratioP1;P1;durP2;ratioP2;P2;SDS_P1;SDS_P2;PMS_P1;PMS_P2;Temp;Humidity;BMP_temperature;BMP_pressure;BME280_temperature;BME280_humidity;BME280_pressure;Samples;Min_cycle;Max_cycle;Signal;HPM_P1;HPM_P2
2021/07/08 00:01:00;;;;;;;4.03;3.63;;;18.90;99.90;;;;;;5099866;28;20550;-83
2021/07/08 00:03:26;;;;;;;8.80;4.33;;;18.90;99.90;;;;;;5098224;28;20656;-83
2021/07/08 00:05:53;;;;;;;3.23;3.03;;;18.90;99.90;;;;;;5081618;28;20155;-83
2021/07/08 00:08:19;;;;;;;4.10;3.80;;;18.90;99.90;;;;;;5100070;28;20580;-83
2021/07/08 00:10:48;;;;;;;4.50;4.10;;;18.80;99.90;;;;;;5099437;28;20418;-83
2021/07/08 00:13:16;;;;;;;5.17;4.67;;;18.90;99.90;;;;;;5099905;28;20404;-83
2021/07/08 00:15:42;;;;;;;5.03;4.10;;;18.80;99.90;;;;;;5099266;28;21007;-84
2021/07/08 00:18:09;;;;;;;4.83;3.70;;;18.80;99.90;;;;;;5099356;28;20924;-83
2021/07/08 00:20:38;;;;;;;4.60;4.20;;;18.90;99.90;;;;;;5099246;28;20389;-83
2021/07/08 00:23:04;;;;;;;3.83;3.53;;;18.80;99.90;;;;;;5099229;28;20397;-83
2021/07/08 00:25:31;;;;;;;4.40;4.00;;;18.80;99.90;;;;;;5081632;28;20487;-83
2021/07/08 00:27:57;;;;;;;4.37;3.97;;;18.70;99.90;;;;;;5081649;28;20480;-83
2021/07/08 00:30:23;;;;;;;4.30;4.00;;;18.70;99.90;;;;;;5100247;28;20396;-84
2021/07/08 00:32:50;;;;;;;3.43;3.23;;;18.60;99.90;;;;;;5100385;28;20441;-83
2021/07/08 00:35:16;;;;;;;4.83;4.13;;;18.70;99.90;;;;;;5103212;28;20159;-83
2021/07/08 00:37:42;;;;;;;4.50;4.10;;;18.70;99.90;;;;;;5104389;28;20838;-83
2021/07/08 00:40:11;;;;;;;4.10;3.80;;;18.70;99.90;;;;;;5104924;28;20389;-83
2021/07/08 00:42:38;;;;;;;4.40;4.03;;;18.80;99.90;;;;;;5115825;28;20448;-82
2021/07/08 00:45:06;;;;;;;3.87;3.47;;;18.70;99.90;;;;;;5116858;28;20396;-83
2021/07/08 00:47:32;;;;;;;5.23;3.60;;;18.70;99.90;;;;;;5117929;28;20399;-82
2021/07/08 00:49:58;;;;;;;3.43;3.13;;;18.70;99.90;;;;;;5119880;28;20400;-82
2021/07/08 00:52:23;;;;;;;3.80;3.50;;;18.70;99.90;;;;;;5113286;28;20238;-83
2021/07/08 00:54:49;;;;;;;4.83;4.20;;;18.70;99.90;;;;;;5107378;28;20257;-82
2021/07/08 00:57:15;;;;;;;3.93;3.50;;;18.70;99.90;;;;;;5103802;28;20199;-83
2021/07/08 00:59:44;;;;;;;4.13;3.67;;;18.70;99.90;;;;;;5103164;28;20166;-83
2021/07/08 01:02:13;;;;;;;5.23;4.27;;;18.70;99.90;;;;;;5103049;28;20247;-83
2021/07/08 01:04:43;;;;;;;5.63;4.20;;;18.70;99.90;;;;;;5103269;28;20388;-83
2021/07/08 01:07:11;;;;;;;4.70;3.60;;;18.60;99.90;;;;;;5103103;28;20478;-82
2021/07/08 01:09:37;;;;;;;3.87;3.57;;;18.60;99.90;;;;;;5103270;28;20432;-83
2021/07/08 01:12:04;;;;;;;4.83;3.90;;;18.60;99.90;;;;;;5103088;28;20403;-82
2021/07/08 01:14:29;;;;;;;5.30;4.60;;;18.60;99.90;;;;;;5103104;28;20393;-82
2021/07/08 01:16:55;;;;;;;5.30;4.70;;;18.60;99.90;;;;;;5102152;28;20444;-82
2021/07/08 01:19:21;;;;;;;5.90;4.13;;;18.60;99.90;;;;;;5102596;28;20552;-82
2021/07/08 01:21:47;;;;;;;4.00;3.70;;;18.50;99.90;;;;;;5103246;28;20154;-83
2021/07/08 01:24:13;;;;;;;5.30;4.20;;;18.50;99.90;;;;;;5102233;28;20159;-82
2021/07/08 01:26:40;;;;;;;4.73;4.07;;;18.50;99.90;;;;;;5102577;28;20484;-83
2021/07/08 01:29:07;;;;;;;4.93;4.43;;;18.60;99.90;;;;;;5102402;28;20182;-83
2021/07/08 01:31:33;;;;;;;4.00;3.67;;;18.60;99.90;;;;;;5102835;28;20484;-83
2021/07/08 01:34:02;;;;;;;4.23;3.83;;;18.50;99.90;;;;;;5102121;28;20403;-82
2021/07/08 01:36:28;;;;;;;4.10;3.83;;;18.50;99.90;;;;;;5102259;28;20397;-83
2021/07/08 01:38:53;;;;;;;4.83;4.00;;;18.50;99.90;;;;;;5102091;28;20780;-82
2021/07/08 01:41:19;;;;;;;4.57;4.17;;;18.50;99.90;;;;;;5100508;28;20599;-83
2021/07/08 01:43:45;;;;;;;4.03;3.70;;;18.50;99.90;;;;;;5100976;28;20221;-83
2021/07/08 01:46:15;;;;;;;5.23;4.57;;;18.50;99.90;;;;;;5101248;28;20613;-83
2021/07/08 01:48:42;;;;;;;4.20;3.90;;;18.50;99.90;;;;;;5101036;28;20405;-83
2021/07/08 01:51:30;;;;;;;6.10;3.87;;;18.50;99.90;;;;;;5101576;28;20381;-83
2021/07/08 01:53:56;;;;;;;4.03;3.63;;;18.60;99.90;;;;;;5101629;28;20416;-82
2021/07/08 01:56:22;;;;;;;5.83;4.83;;;18.60;99.90;;;;;;5100744;28;20436;-82
2021/07/08 01:58:48;;;;;;;9.37;4.77;;;18.60;99.90;;;;;;5101863;28;20453;-82
2021/07/08 02:01:14;;;;;;;4.60;4.17;;;18.50;99.90;;;;;;5101677;28;20385;-82
2021/07/08 02:03:41;;;;;;;4.70;4.40;;;18.50;99.90;;;;;;5100953;28;20393;-82
2021/07/08 02:06:08;;;;;;;5.60;4.40;;;18.50;99.90;;;;;;5101383;28;20906;-82
2021/07/08 02:08:36;;;;;;;5.60;3.27;;;18.50;99.90;;;;;;5100605;28;20436;-82
2021/07/08 02:11:03;;;;;;;4.77;4.27;;;18.50;99.90;;;;;;5101042;28;20393;-82
2021/07/08 02:13:29;;;;;;;5.97;4.40;;;18.50;99.90;;;;;;5099871;28;20432;-82
2021/07/08 02:15:55;;;;;;;5.40;4.90;;;18.50;99.90;;;;;;5100508;28;20397;-82
2021/07/08 02:18:21;;;;;;;4.43;4.13;;;18.40;99.90;;;;;;5100324;28;20202;-82
2021/07/08 02:20:46;;;;;;;7.60;3.80;;;18.40;99.90;;;;;;5099523;28;20161;-82
2021/07/08 02:23:12;;;;;;;4.73;4.33;;;18.40;99.90;;;;;;5100776;28;20185;-83
2021/07/08 02:25:38;;;;;;;4.93;4.10;;;18.40;99.90;;;;;;5100179;28;20159;-83
2021/07/08 02:28:04;;;;;;;4.93;4.53;;;18.40;99.90;;;;;;5081674;28;20163;-83
2021/07/08 02:30:30;;;;;;;4.70;4.40;;;18.40;99.90;;;;;;5100361;28;20509;-82
2021/07/08 02:32:57;;;;;;;5.97;5.37;;;18.40;99.90;;;;;;5100238;28;20162;-82
2021/07/08 02:35:25;;;;;;;5.70;5.13;;;18.40;99.90;;;;;;5099801;28;20493;-82
2021/07/08 02:37:52;;;;;;;5.47;5.03;;;18.40;99.90;;;;;;5104368;28;20441;-80
2021/07/08 02:40:22;;;;;;;5.70;4.70;;;18.50;99.90;;;;;;5115216;28;20393;-79
2021/07/08 02:42:51;;;;;;;5.57;5.07;;;18.40;99.90;;;;;;5115684;28;20478;-80
2021/07/08 02:45:19;;;;;;;5.10;4.60;;;18.40;99.90;;;;;;5116341;28;20381;-79
2021/07/08 02:47:45;;;;;;;7.03;4.87;;;18.40;99.90;;;;;;5115261;28;20397;-80
2021/07/08 02:50:11;;;;;;;5.13;4.63;;;18.30;99.90;;;;;;5116332;28;20416;-80
2021/07/08 02:52:37;;;;;;;5.07;4.67;;;18.40;99.90;;;;;;5116637;28;20171;-80
2021/07/08 02:55:05;;;;;;;4.93;4.53;;;18.40;99.90;;;;;;5114697;28;20393;-79
2021/07/08 02:57:31;;;;;;;6.37;4.60;;;18.40;99.90;;;;;;5115673;28;20202;-80
2021/07/08 02:59:57;;;;;;;5.07;4.67;;;18.40;99.90;;;;;;5111829;28;20401;-80
2021/07/08 03:02:23;;;;;;;7.33;4.57;;;18.40;99.90;;;;;;5109074;28;20295;-82
2021/07/08 03:04:49;;;;;;;5.67;5.17;;;18.40;99.90;;;;;;5096236;28;20159;-81
2021/07/08 03:07:16;;;;;;;5.30;4.77;;;18.40;99.90;;;;;;5114385;28;20186;-80
2021/07/08 03:09:42;;;;;;;5.60;4.97;;;18.40;99.90;;;;;;5116621;28;20438;-80
2021/07/08 03:12:08;;;;;;;5.17;4.67;;;18.40;99.90;;;;;;5115998;28;20385;-80
2021/07/08 03:14:34;;;;;;;4.53;4.23;;;18.40;99.90;;;;;;5116092;28;20373;-80
2021/07/08 03:17:00;;;;;;;4.57;4.23;;;18.40;99.90;;;;;;5116133;28;20444;-80
2021/07/08 03:19:26;;;;;;;5.17;4.67;;;18.50;99.90;;;;;;5117968;28;20503;-79
2021/07/08 03:21:51;;;;;;;6.63;5.03;;;18.50;99.90;;;;;;5116216;28;20162;-80
2021/07/08 03:24:17;;;;;;;5.43;4.77;;;18.50;99.90;;;;;;5116835;28;20193;-80
2021/07/08 03:26:43;;;;;;;4.87;4.50;;;18.40;99.90;;;;;;5115197;28;20196;-79
2021/07/08 03:29:09;;;;;;;5.17;4.43;;;18.40;99.90;;;;;;5114848;28;20184;-80
2021/07/08 03:31:35;;;;;;;5.33;4.70;;;18.40;99.90;;;;;;5116675;28;20430;-80
2021/07/08 03:34:01;;;;;;;5.40;5.00;;;18.40;99.90;;;;;;5116170;28;20169;-79
2021/07/08 03:36:27;;;;;;;5.53;4.67;;;18.40;99.90;;;;;;5115391;28;20174;-80
2021/07/08 03:38:52;;;;;;;13.73;5.50;;;18.40;99.90;;;;;;5115760;28;20226;-80
2021/07/08 03:41:18;;;;;;;5.67;4.30;;;18.40;99.90;;;;;;5116404;28;20501;-79
2021/07/08 03:43:45;;;;;;;5.30;4.80;;;18.30;99.90;;;;;;5116067;28;20254;-82
2021/07/08 03:46:11;;;;;;;5.33;4.83;;;18.30;99.90;;;;;;5114473;28;20869;-82
2021/07/08 03:48:37;;;;;;;5.20;4.80;;;18.20;99.90;;;;;;5100285;28;20420;-83
2021/07/08 03:51:03;;;;;;;4.27;3.87;;;18.20;99.90;;;;;;5099597;28;20155;-82
2021/07/08 03:53:29;;;;;;;4.37;4.07;;;18.20;99.90;;;;;;5099547;28;20231;-82
2021/07/08 03:59:01;;;;;;;4.80;4.30;;;18.10;99.90;;;;;;5099496;28;20509;-82
2021/07/08 04:01:27;;;;;;;5.50;4.90;;;18.10;99.90;;;;;;5081728;28;20389;-82
2021/07/08 04:03:53;;;;;;;8.73;5.63;;;18.20;99.90;;;;;;5099670;28;20224;-82
2021/07/08 04:06:19;;;;;;;8.13;5.03;;;18.20;99.90;;;;;;5085202;28;20154;-81
2021/07/08 04:08:45;;;;;;;10.73;4.87;;;18.20;99.90;;;;;;5103945;28;20434;-82
2021/07/08 04:11:11;;;;;;;6.23;4.23;;;18.10;99.90;;;;;;5110764;28;20425;-82
2021/07/08 04:13:37;;;;;;;5.60;5.07;;;18.20;99.90;;;;;;5107072;28;20635;-83
2021/07/08 04:16:03;;;;;;;4.27;3.90;;;18.20;99.90;;;;;;5106760;28;20162;-82
2021/07/08 04:18:29;;;;;;;4.77;4.47;;;18.20;99.90;;;;;;5106553;28;20217;-82
2021/07/08 04:20:55;;;;;;;7.17;4.43;;;18.20;99.90;;;;;;5109182;28;20391;-82
2021/07/08 04:23:20;;;;;;;8.20;4.77;;;18.20;99.90;;;;;;5107446;28;20159;-82
2021/07/08 04:25:46;;;;;;;5.13;4.63;;;18.20;99.90;;;;;;5107199;28;20246;-82
2021/07/08 04:28:12;;;;;;;6.10;5.00;;;18.20;99.90;;;;;;5107048;28;20262;-84
2021/07/08 04:30:40;;;;;;;8.53;7.73;;;18.30;99.90;;;;;;5111999;28;20162;-83
2021/07/08 04:33:07;;;;;;;7.33;4.40;;;18.30;99.90;;;;;;5122910;28;20173;-81
2021/07/08 04:35:36;;;;;;;6.43;5.50;;;18.30;99.90;;;;;;5116446;28;20401;-83
2021/07/08 04:38:03;;;;;;;5.13;4.70;;;18.30;99.90;;;;;;5107300;28;20907;-83
2021/07/08 04:40:29;;;;;;;5.53;5.03;;;18.40;99.90;;;;;;5107656;28;20389;-83
2021/07/08 04:42:55;;;;;;;7.07;6.43;;;18.40;99.90;;;;;;5106584;28;20466;-83
2021/07/08 04:45:21;;;;;;;4.93;4.40;;;18.40;99.90;;;;;;5107228;28;20248;-83
2021/07/08 04:47:47;;;;;;;5.90;4.67;;;18.40;99.90;;;;;;5107119;28;20518;-83
2021/07/08 04:50:17;;;;;;;7.27;5.23;;;18.50;99.90;;;;;;5107457;28;20250;-83
2021/07/08 04:52:44;;;;;;;5.83;4.60;;;18.50;99.90;;;;;;5106761;28;20798;-83
2021/07/08 04:55:11;;;;;;;5.37;4.83;;;18.60;99.90;;;;;;5106504;28;20392;-83
2021/07/08 04:57:37;;;;;;;5.10;4.50;;;18.60;99.90;;;;;;5107067;28;20822;-83
2021/07/08 05:00:06;;;;;;;4.30;4.00;;;18.60;99.90;;;;;;5113130;28;20428;-83
2021/07/08 05:02:32;;;;;;;4.70;4.23;;;18.60;99.90;;;;;;5089551;28;20856;-83
2021/07/08 05:04:58;;;;;;;4.50;4.10;;;18.50;99.90;;;;;;5107372;28;20488;-83
2021/07/08 05:07:24;;;;;;;5.10;4.03;;;18.40;99.90;;;;;;5107169;28;20162;-83
2021/07/08 05:09:50;;;;;;;14.30;4.57;;;18.40;99.90;;;;;;5106085;28;20170;-83
2021/07/08 05:12:16;;;;;;;8.07;4.77;;;18.50;99.90;;;;;;5107044;28;20162;-82
2021/07/08 05:14:42;;;;;;;5.90;4.57;;;18.40;99.90;;;;;;5107370;28;20405;-83
2021/07/08 05:17:07;;;;;;;10.27;5.53;;;18.40;99.90;;;;;;5088295;28;20243;-83
2021/07/08 05:19:33;;;;;;;5.53;4.70;;;18.40;99.90;;;;;;5106920;28;20166;-82
2021/07/08 05:22:00;;;;;;;7.57;4.90;;;18.40;99.90;;;;;;5085948;28;20159;-83
2021/07/08 05:24:26;;;;;;;4.53;4.13;;;18.40;99.90;;;;;;5072617;28;20179;-83
2021/07/08 05:26:54;;;;;;;4.43;4.13;;;18.40;99.90;;;;;;5084026;28;20417;-83
2021/07/08 05:29:22;;;;;;;4.50;4.10;;;18.40;99.90;;;;;;5084713;28;20928;-83
2021/07/08 05:31:49;;;;;;;5.13;3.70;;;18.50;99.90;;;;;;5087764;28;20390;-83
2021/07/08 05:34:14;;;;;;;5.20;4.77;;;18.50;99.90;;;;;;5091557;28;20428;-83
2021/07/08 05:36:40;;;;;;;4.53;4.03;;;18.50;99.90;;;;;;5066218;28;20430;-83
2021/07/08 05:39:06;;;;;;;4.87;4.50;;;18.50;99.90;;;;;;5084222;28;20410;-82
2021/07/08 05:41:32;;;;;;;4.77;3.90;;;18.60;99.90;;;;;;5087600;28;20152;-83
2021/07/08 05:43:58;;;;;;;6.27;5.63;;;18.60;99.90;;;;;;5085892;28;20222;-82
2021/07/08 05:46:26;;;;;;;6.63;5.17;;;18.60;99.90;;;;;;5083377;28;20416;-82
2021/07/08 05:48:52;;;;;;;8.40;3.70;;;18.70;99.90;;;;;;5082640;28;20193;-83
2021/07/08 05:51:18;;;;;;;7.43;4.13;;;18.60;99.90;;;;;;5083329;28;20413;-83
2021/07/08 05:53:43;;;;;;;5.63;5.00;;;18.70;99.90;;;;;;5082539;28;20416;-83
2021/07/08 05:56:09;;;;;;;7.53;5.73;;;18.70;99.90;;;;;;5064656;28;20168;-83
2021/07/08 05:58:35;;;;;;;11.07;5.30;;;18.80;99.90;;;;;;5081676;28;20191;-83
2021/07/08 06:01:01;;;;;;;6.77;5.43;;;18.80;99.90;;;;;;5082274;28;20210;-83
2021/07/08 06:03:27;;;;;;;8.03;5.10;;;18.80;99.90;;;;;;5082806;28;20164;-83
2021/07/08 06:05:52;;;;;;;7.33;4.90;;;18.80;99.90;;;;;;5070460;28;20234;-83
2021/07/08 06:08:18;;;;;;;4.90;4.50;;;18.80;99.90;;;;;;5095332;28;20262;-83
2021/07/08 06:10:44;;;;;;;6.00;4.73;;;18.80;99.90;;;;;;5075759;28;20175;-83
2021/07/08 06:13:10;;;;;;;5.07;4.67;;;18.70;99.90;;;;;;5094889;28;20195;-83
2021/07/08 06:15:37;;;;;;;5.70;5.20;;;18.70;99.90;;;;;;5095121;28;20156;-82
2021/07/08 06:18:03;;;;;;;5.47;4.70;;;18.60;99.90;;;;;;5094675;28;20876;-82
2021/07/08 06:20:30;;;;;;;5.70;5.20;;;18.70;99.90;;;;;;5089940;28;20425;-80
2021/07/08 06:22:55;;;;;;;6.97;5.87;;;18.70;99.90;;;;;;5085012;28;20524;-80
2021/07/08 06:25:23;;;;;;;6.20;5.70;;;18.80;99.90;;;;;;5085447;28;20446;-81
2021/07/08 06:27:49;;;;;;;7.00;4.20;;;18.80;99.90;;;;;;5086841;28;20171;-80
2021/07/08 06:30:16;;;;;;;7.43;5.63;;;18.80;99.90;;;;;;5085210;28;20426;-80
2021/07/08 06:32:42;;;;;;;6.10;5.60;;;18.80;99.90;;;;;;5088645;28;20406;-80
2021/07/08 06:35:08;;;;;;;8.70;5.70;;;18.80;99.90;;;;;;5096170;28;20436;-83
2021/07/08 06:37:35;;;;;;;9.47;6.00;;;18.80;99.90;;;;;;5095707;28;20469;-83
2021/07/08 06:40:02;;;;;;;8.13;6.40;;;18.80;99.90;;;;;;5092282;28;20447;-82
2021/07/08 06:42:28;;;;;;;8.53;5.20;;;18.90;99.90;;;;;;5096705;28;20488;-81
2021/07/08 06:44:54;;;;;;;5.77;5.17;;;18.90;99.90;;;;;;5091333;28;20406;-83
2021/07/08 06:47:21;;;;;;;5.13;4.77;;;18.90;99.90;;;;;;5097093;28;20174;-82
2021/07/08 06:49:47;;;;;;;8.23;5.47;;;18.90;99.90;;;;;;5095853;28;20191;-83
2021/07/08 06:52:14;;;;;;;7.77;5.40;;;18.80;99.90;;;;;;5078004;28;20417;-80
2021/07/08 06:54:40;;;;;;;5.97;5.47;;;18.80;99.90;;;;;;5097042;28;20189;-80
2021/07/08 06:57:06;;;;;;;6.43;5.40;;;18.80;99.90;;;;;;5097070;28;20465;-83
2021/07/08 06:59:31;;;;;;;7.37;5.80;;;18.80;99.90;;;;;;5097162;28;20178;-81
2021/07/08 07:01:57;;;;;;;6.03;5.20;;;18.70;99.90;;;;;;5095399;28;20178;-80
2021/07/08 07:04:23;;;;;;;6.83;5.60;;;18.70;99.90;;;;;;5069988;28;20163;-80
2021/07/08 07:06:49;;;;;;;7.23;6.60;;;18.70;99.90;;;;;;5095002;28;20223;-81
2021/07/08 07:09:15;;;;;;;10.03;6.20;;;18.60;99.90;;;;;;5093959;28;20183;-80
2021/07/08 07:11:41;;;;;;;8.07;6.50;;;18.60;99.90;;;;;;5077773;28;20477;-82
2021/07/08 07:14:06;;;;;;;6.77;5.30;;;18.70;99.90;;;;;;5095467;28;20183;-82
2021/07/08 07:16:32;;;;;;;5.63;5.10;;;18.70;99.90;;;;;;5092135;28;20175;-80
2021/07/08 07:18:58;;;;;;;7.90;5.10;;;18.80;99.90;;;;;;5093346;28;20207;-80
2021/07/08 07:21:24;;;;;;;6.63;4.93;;;18.80;99.90;;;;;;5092999;28;20163;-82
2021/07/08 07:23:50;;;;;;;6.30;5.70;;;18.70;99.90;;;;;;5083733;28;20189;-83
2021/07/08 07:26:20;;;;;;;7.47;6.60;;;18.50;99.90;;;;;;5082003;28;20172;-83
2021/07/08 07:28:46;;;;;;;5.83;5.33;;;18.40;99.90;;;;;;5079850;28;20437;-83
2021/07/08 07:31:12;;;;;;;11.00;6.67;;;18.50;99.90;;;;;;5080819;28;20417;-83
2021/07/08 07:33:38;;;;;;;11.30;5.70;;;18.60;99.90;;;;;;5080140;28;20171;-83
2021/07/08 07:36:04;;;;;;;8.80;5.80;;;18.60;99.90;;;;;;5080645;28;20504;-83
2021/07/08 07:38:30;;;;;;;9.50;6.47;;;18.40;99.90;;;;;;5079981;28;20194;-83
2021/07/08 07:40:56;;;;;;;7.97;5.63;;;18.60;99.90;;;;;;5078308;28;20508;-83
2021/07/08 07:43:23;;;;;;;6.80;5.90;;;18.80;99.90;;;;;;5077596;28;20219;-82
2021/07/08 07:45:49;;;;;;;10.73;5.60;;;18.90;99.90;;;;;;5080360;28;20603;-83
2021/07/08 07:48:15;;;;;;;6.37;5.87;;;19.00;99.90;;;;;;5077815;28;20905;-83
2021/07/08 07:50:42;;;;;;;7.90;6.00;;;19.10;99.90;;;;;;5080393;28;20874;-83
2021/07/08 07:53:08;;;;;;;7.50;6.90;;;18.90;99.90;;;;;;5065850;28;20398;-82
2021/07/08 07:55:34;;;;;;;6.90;6.30;;;18.80;99.90;;;;;;5088744;28;20445;-82
2021/07/08 07:58:01;;;;;;;6.90;5.73;;;18.40;99.90;;;;;;5054999;28;20453;-83
2021/07/08 08:00:30;;;;;;;6.97;5.50;;;18.30;99.90;;;;;;5090449;28;20559;-82
2021/07/08 08:02:56;;;;;;;6.40;5.80;;;18.20;99.90;;;;;;5091542;28;20436;-80
2021/07/08 08:05:33;;;;;;;5.40;4.80;;;18.20;99.90;;;;;;5093497;28;20493;-79
2021/07/08 08:10:38;;;;;;;6.03;4.73;;;18.40;99.90;;;;;;5089186;28;20421;-81
2021/07/08 08:13:08;;;;;;;6.10;5.30;;;18.60;99.90;;;;;;5072576;28;20471;-83
2021/07/08 08:15:34;;;;;;;4.93;4.50;;;18.70;99.90;;;;;;5092327;28;20447;-82
2021/07/08 08:18:01;;;;;;;5.30;4.83;;;18.90;99.90;;;;;;5078157;28;20449;-82
2021/07/08 08:20:28;;;;;;;5.43;4.93;;;19.10;99.90;;;;;;5066073;28;20163;-83
2021/07/08 08:22:55;;;;;;;5.87;5.33;;;19.20;99.90;;;;;;5075614;28;20420;-83
2021/07/08 08:25:21;;;;;;;6.90;5.30;;;19.30;99.90;;;;;;5084267;28;20417;-83
2021/07/08 08:27:47;;;;;;;6.37;5.30;;;19.40;99.90;;;;;;5079769;28;20421;-83
2021/07/08 08:30:14;;;;;;;4.90;4.50;;;19.50;99.90;;;;;;5079630;28;20422;-83
2021/07/08 08:32:42;;;;;;;6.93;5.40;;;19.50;99.90;;;;;;5079040;28;20183;-82
2021/07/08 08:35:09;;;;;;;7.70;5.90;;;19.70;99.90;;;;;;5079606;28;20429;-82
2021/07/08 08:37:36;;;;;;;5.80;5.07;;;19.80;99.90;;;;;;5079974;28;20929;-83
2021/07/08 08:40:04;;;;;;;6.10;5.50;;;19.70;99.90;;;;;;5062014;28;20463;-83
2021/07/08 08:42:30;;;;;;;10.43;6.30;;;19.70;99.90;;;;;;5067252;28;20471;-83
2021/07/08 08:44:56;;;;;;;6.53;5.93;;;19.70;99.90;;;;;;5099733;28;20420;-83
2021/07/08 08:47:23;;;;;;;7.97;5.40;;;19.70;99.90;;;;;;5081031;28;20409;-83
2021/07/08 08:49:52;;;;;;;6.23;5.77;;;19.80;99.90;;;;;;5081928;28;20263;-83
2021/07/08 08:52:19;;;;;;;6.60;6.03;;;19.80;99.90;;;;;;5100178;28;20863;-83
2021/07/08 08:54:47;;;;;;;12.97;6.67;;;19.80;99.90;;;;;;5061772;28;20402;-83
2021/07/08 08:57:13;;;;;;;6.30;5.80;;;19.80;99.90;;;;;;5076870;28;20535;-83
2021/07/08 08:59:38;;;;;;;7.97;4.20;;;19.80;99.90;;;;;;5082366;28;20401;-83
2021/07/08 09:02:12;;;;;;;5.53;5.13;;;19.80;99.90;;;;;;5104277;28;20440;-83
2021/07/08 09:04:38;;;;;;;7.60;6.70;;;19.80;99.90;;;;;;5098764;28;20217;-83
2021/07/08 09:07:19;;;;;;;5.37;4.70;;;19.80;99.90;;;;;;5103786;28;20416;-83
2021/07/08 09:09:44;;;;;;;5.93;5.17;;;19.80;99.90;;;;;;5103352;28;20508;-83
2021/07/08 09:12:17;;;;;;;6.37;5.70;;;19.80;99.90;;;;;;5105381;28;20408;-82
2021/07/08 09:14:43;;;;;;;5.53;5.03;;;19.80;99.90;;;;;;5115113;28;20166;-82
2021/07/08 09:17:19;;;;;;;5.47;5.07;;;20.00;99.90;;;;;;5117214;28;20474;-82
2021/07/08 09:19:47;;;;;;;5.57;5.07;;;20.10;99.90;;;;;;5117494;28;20423;-80
2021/07/08 09:22:27;;;;;;;8.50;5.27;;;20.30;99.90;;;;;;5116035;28;20408;-81
2021/07/08 09:24:53;;;;;;;6.53;5.23;;;20.40;99.90;;;;;;5118324;28;20399;-81
2021/07/08 09:27:25;;;;;;;5.10;4.67;;;20.60;99.90;;;;;;5117798;28;20424;-82
2021/07/08 09:29:51;;;;;;;5.30;4.90;;;20.90;99.90;;;;;;5117684;28;20202;-81
2021/07/08 09:32:21;;;;;;;4.83;4.43;;;21.20;99.90;;;;;;5118106;28;20412;-80
2021/07/08 09:34:51;;;;;;;6.20;4.80;;;21.40;99.90;;;;;;5118146;28;20470;-81
2021/07/08 09:37:20;;;;;;;9.93;4.40;;;21.60;99.90;;;;;;5117964;28;20462;-80
2021/07/08 09:39:52;;;;;;;6.37;3.50;;;21.70;99.90;;;;;;5118689;28;20484;-82
2021/07/08 09:42:36;;;;;;;7.80;3.70;;;21.60;99.90;;;;;;5113314;28;20464;-80
2021/07/08 09:45:18;;;;;;;4.10;3.60;;;21.50;99.90;;;;;;5097779;28;20461;-83
2021/07/08 09:47:46;;;;;;;4.03;3.73;;;21.50;99.90;;;;;;5096586;28;20486;-81
2021/07/08 09:50:33;;;;;;;4.13;3.70;;;21.50;99.90;;;;;;5087500;28;20438;-82
2021/07/08 09:53:02;;;;;;;9.67;4.13;;;21.50;99.90;;;;;;5094378;28;20485;-82
2021/07/08 09:55:33;;;;;;;3.73;3.43;;;21.60;99.90;;;;;;5096431;28;20409;-82
2021/07/08 09:58:04;;;;;;;3.63;3.20;;;21.70;99.90;;;;;;5079835;28;20488;-81
2021/07/08 10:00:32;;;;;;;3.00;2.80;;;21.70;99.90;;;;;;5096001;28;20414;-81
2021/07/08 10:02:59;;;;;;;4.10;3.63;;;21.80;99.90;;;;;;5075964;28;20605;-82
2021/07/08 10:05:26;;;;;;;4.00;3.60;;;22.00;99.90;;;;;;5092906;28;20494;-82
2021/07/08 10:07:53;;;;;;;3.53;3.10;;;22.10;99.90;;;;;;5073922;28;20461;-82
2021/07/08 10:10:19;;;;;;;4.33;3.93;;;22.30;99.90;;;;;;5092631;28;20421;-82
2021/07/08 10:12:46;;;;;;;4.77;3.40;;;22.30;99.90;;;;;;5092595;28;20862;-83
2021/07/08 10:15:14;;;;;;;4.90;4.30;;;22.40;99.90;;;;;;5093366;28;20175;-82
2021/07/08 10:17:41;;;;;;;5.17;4.67;;;22.40;99.90;;;;;;5092564;28;20445;-83
2021/07/08 10:20:14;;;;;;;4.63;4.07;;;22.60;99.90;;;;;;5076619;28;20485;-82
2021/07/08 10:22:41;;;;;;;5.07;4.53;;;21.80;99.90;;;;;;5092630;28;20417;-81
2021/07/08 10:25:11;;;;;;;4.80;4.40;;;22.20;99.90;;;;;;5092239;28;20425;-84
2021/07/08 10:27:39;;;;;;;4.90;3.90;;;22.80;99.90;;;;;;5038995;28;20414;-84
2021/07/08 10:30:06;;;;;;;4.70;4.30;;;23.20;99.90;;;;;;5079087;28;20414;-84
2021/07/08 10:32:32;;;;;;;3.93;3.53;;;23.20;99.90;;;;;;5051512;28;20423;-83
2021/07/08 10:34:58;;;;;;;3.73;3.43;;;23.10;99.90;;;;;;5033383;28;20486;-83
2021/07/08 10:37:35;;;;;;;3.00;2.80;;;22.60;99.90;;;;;;5048374;28;20463;-82
2021/07/08 10:40:03;;;;;;;2.97;2.77;;;23.00;99.90;;;;;;5050587;28;20173;-84
2021/07/08 10:42:49;;;;;;;3.47;3.27;;;22.70;99.90;;;;;;5034401;28;20489;-82
2021/07/08 10:45:42;;;;;;;2.90;2.70;;;22.10;99.90;;;;;;5035245;28;20494;-84
2021/07/08 10:48:11;;;;;;;3.50;3.20;;;22.30;99.90;;;;;;5040085;28;20465;-82
2021/07/08 10:50:41;;;;;;;3.83;3.43;;;22.50;99.90;;;;;;5051841;28;20495;-83
2021/07/08 10:53:26;;;;;;;3.60;3.30;;;22.60;99.90;;;;;;5036180;28;20396;-82
2021/07/08 10:55:56;;;;;;;3.33;3.00;;;22.80;99.90;;;;;;5051878;28;20412;-81
2021/07/08 10:58:36;;;;;;;2.70;2.50;;;23.00;99.90;;;;;;5051429;28;20447;-82
2021/07/08 11:01:02;;;;;;;4.90;3.93;;;23.00;99.90;;;;;;5033571;28;20446;-82
2021/07/08 11:03:45;;;;;;;4.50;2.70;;;22.70;99.90;;;;;;5071555;28;20420;-83
2021/07/08 11:06:23;;;;;;;3.10;2.80;;;23.00;99.90;;;;;;5073878;28;20424;-82
2021/07/08 11:08:51;;;;;;;3.37;3.07;;;22.90;99.90;;;;;;5073067;28;20517;-83
2021/07/08 11:11:58;;;;;;;4.40;3.10;;;22.90;99.90;;;;;;5062918;28;20507;-84
2021/07/08 11:14:25;;;;;;;4.10;3.63;;;22.70;99.90;;;;;;5055041;28;20471;-84
2021/07/08 11:16:59;;;;;;;8.10;3.37;;;22.50;99.90;;;;;;5022838;28;20451;-83
2021/07/08 11:19:34;;;;;;;3.70;3.50;;;22.00;99.90;;;;;;5039646;28;20446;-84
2021/07/08 11:22:04;;;;;;;4.57;4.17;;;22.20;99.90;;;;;;5037817;28;20888;-83
2021/07/08 11:24:43;;;;;;;4.60;4.30;;;22.50;99.90;;;;;;5037429;28;20519;-84
2021/07/08 11:27:11;;;;;;;4.03;3.70;;;22.30;99.90;;;;;;5036290;28;20477;-83
2021/07/08 11:29:45;;;;;;;3.37;3.07;;;22.10;99.90;;;;;;5021280;28;20879;-84
2021/07/08 11:32:21;;;;;;;3.10;2.90;;;22.40;99.90;;;;;;5020331;28;20430;-83
2021/07/08 11:35:09;;;;;;;3.30;2.90;;;22.40;99.90;;;;;;5013848;28;20522;-83
2021/07/08 11:37:40;;;;;;;2.93;2.73;;;22.00;99.90;;;;;;5021455;28;20479;-82
2021/07/08 11:40:15;;;;;;;3.43;3.07;;;22.10;99.90;;;;;;5021520;28;20455;-83
2021/07/08 11:42:43;;;;;;;4.03;2.60;;;22.40;99.90;;;;;;5013495;28;20540;-82
2021/07/08 11:45:12;;;;;;;2.60;2.40;;;22.60;99.90;;;;;;5038914;28;20502;-84
2021/07/08 11:47:57;;;;;;;2.80;2.70;;;22.60;99.90;;;;;;5049531;28;20487;-83
2021/07/08 11:50:28;;;;;;;4.13;3.70;;;22.80;99.90;;;;;;5079291;28;20398;-85
2021/07/08 11:53:13;;;;;;;2.80;2.60;;;23.00;99.90;;;;;;5080212;28;20382;-84
2021/07/08 11:55:42;;;;;;;3.30;2.97;;;23.20;99.90;;;;;;5060532;28;20402;-83
2021/07/08 11:58:10;;;;;;;3.13;2.90;;;23.50;99.90;;;;;;5088199;28;20545;-81
2021/07/08 12:00:46;;;;;;;3.47;3.17;;;24.00;99.90;;;;;;5071551;28;20452;-84
2021/07/08 12:03:30;;;;;;;3.60;3.30;;;24.50;99.90;;;;;;5080171;28;20390;-84
2021/07/08 12:06:02;;;;;;;4.07;3.50;;;25.00;99.90;;;;;;5066279;28;20393;-84
2021/07/08 12:08:32;;;;;;;3.40;3.10;;;24.40;99.90;;;;;;5062183;28;20765;-85
2021/07/08 12:11:10;;;;;;;2.80;2.60;;;23.80;99.90;;;;;;5081803;28;20474;-85
2021/07/08 12:13:46;;;;;;;4.30;3.33;;;24.40;99.90;;;;;;5076036;28;20380;-84
2021/07/08 12:16:11;;;;;;;3.83;2.50;;;25.10;99.90;;;;;;5105137;28;20510;-85
2021/07/08 12:18:40;;;;;;;2.57;2.47;;;25.30;99.90;;;;;;5094523;28;20473;-85
2021/07/08 12:21:19;;;;;;;2.90;2.70;;;25.50;99.90;;;;;;5078016;28;20163;-84
2021/07/08 12:23:45;;;;;;;3.47;3.20;;;25.40;99.90;;;;;;5078476;28;20440;-84
2021/07/08 12:26:26;;;;;;;2.77;2.57;;;25.00;99.90;;;;;;5078393;28;20401;-85
2021/07/08 12:29:10;;;;;;;3.23;2.93;;;24.70;99.90;;;;;;5077032;28;20185;-84
2021/07/08 12:31:51;;;;;;;5.00;3.33;;;24.00;99.90;;;;;;5080657;28;20405;-85
2021/07/08 12:34:19;;;;;;;3.07;2.87;;;23.30;99.90;;;;;;5081326;28;20853;-84
2021/07/08 12:36:45;;;;;;;3.17;2.80;;;23.60;99.90;;;;;;5081721;28;20405;-84
2021/07/08 12:39:16;;;;;;;2.43;2.33;;;23.70;99.90;;;;;;5078742;28;20468;-85
2021/07/08 12:41:45;;;;;;;3.20;2.33;;;23.20;99.90;;;;;;5081671;28;20385;-84
2021/07/08 12:44:14;;;;;;;3.43;3.10;;;22.90;99.90;;;;;;5079266;28;20866;-85
2021/07/08 12:46:40;;;;;;;2.67;2.57;;;23.10;99.90;;;;;;5080951;28;20421;-85
2021/07/08 12:49:09;;;;;;;3.17;2.97;;;23.10;99.90;;;;;;5081059;28;20398;-85
2021/07/08 12:51:37;;;;;;;2.73;2.53;;;23.10;99.90;;;;;;5079850;28;20405;-84
2021/07/08 12:54:03;;;;;;;3.10;2.90;;;23.10;99.90;;;;;;5081750;28;20469;-84
2021/07/08 12:56:29;;;;;;;2.53;2.40;;;23.10;99.90;;;;;;5081359;28;20824;-85